createdAt,value
2023-07-09T00:00:48.346Z,67.30
2023-07-09T00:05:50.674Z,66.90
2023-07-09T00:10:52.195Z,66.98
2023-07-09T00:15:58.529Z,67.36
2023-07-09T00:21:00.152Z,67.89
2023-07-09T00:26:04.620Z,68.48
2023-07-09T00:31:07.213Z,68.03
2023-07-09T00:36:26.836Z,68.27
2023-07-09T00:41:29.575Z,68.98
2023-07-09T00:46:31.111Z,69.07
2023-07-09T00:51:37.813Z,68.53
2023-07-09T00:56:43.608Z,68.39
2023-07-09T01:01:48.431Z,69.47
2023-07-09T01:06:52.634Z,69.50
2023-07-09T01:11:57.557Z,69.61
2023-07-09T01:17:05.588Z,69.50
2023-07-09T01:22:07.075Z,69.83
2023-07-09T01:27:08.540Z,69.16
2023-07-09T01:32:11.193Z,69.44
2023-07-09T01:37:12.635Z,69.75
2023-07-09T01:42:14.140Z,70.14
2023-07-09T01:47:16.546Z,70.60
2023-07-09T01:52:20.188Z,70.76
2023-07-09T01:57:27.123Z,70.89
2023-07-09T02:02:28.718Z,71.06
2023-07-09T02:07:30.227Z,70.63
2023-07-09T02:12:31.673Z,70.94
2023-07-09T02:17:33.106Z,71.45
2023-07-09T02:22:35.739Z,71.41
2023-07-09T02:27:38.207Z,71.42
2023-07-09T02:32:39.745Z,71.21
2023-07-09T02:37:41.653Z,71.75
2023-07-09T02:42:43.212Z,71.75
2023-07-09T02:47:44.986Z,71.59
2023-07-09T02:52:46.756Z,72.10
2023-07-09T02:57:48.250Z,72.26
2023-07-09T03:02:49.756Z,72.35
2023-07-09T03:07:51.312Z,72.74
2023-07-09T03:12:53.094Z,72.77
2023-07-09T03:17:54.701Z,72.65
2023-07-09T03:22:56.195Z,72.96
2023-07-09T03:27:57.625Z,72.24
2023-07-09T03:32:59.142Z,72.26
2023-07-09T03:38:00.826Z,72.56
2023-07-09T03:43:02.274Z,73.38
2023-07-09T03:48:05.394Z,73.06
2023-07-09T03:53:07.062Z,73.29
2023-07-09T03:58:08.891Z,73.61
2023-07-09T04:03:11.092Z,74.05
2023-07-09T04:08:12.511Z,74.37
2023-07-09T04:13:14.010Z,74.71
2023-07-09T04:18:15.507Z,74.80
2023-07-09T04:23:17.978Z,75.07
2023-07-09T04:28:19.767Z,74.90
2023-07-09T04:33:21.730Z,75.07
2023-07-09T04:38:24.658Z,75.56
2023-07-09T04:43:26.058Z,75.42
2023-07-09T04:48:27.539Z,75.58
2023-07-09T04:53:29.029Z,75.99
2023-07-09T04:58:31.225Z,75.92
2023-07-09T05:03:32.816Z,75.84
2023-07-09T05:08:34.355Z,75.47
2023-07-09T05:13:35.822Z,75.85
2023-07-09T05:18:38.345Z,75.93
2023-07-09T05:23:39.905Z,76.49
2023-07-09T05:28:41.392Z,75.47
2023-07-09T05:33:42.944Z,75.78
2023-07-09T05:38:44.730Z,74.86
2023-07-09T05:43:46.206Z,73.77
2023-07-09T05:48:47.737Z,72.55
2023-07-09T05:53:49.269Z,73.49
2023-07-09T05:58:50.743Z,73.20
2023-07-09T06:03:52.335Z,73.39
2023-07-09T06:08:54.689Z,72.85
2023-07-09T06:13:56.863Z,73.51
2023-07-09T06:18:58.668Z,72.34
2023-07-09T06:24:00.151Z,71.06
2023-07-09T06:29:02.151Z,71.94
2023-07-09T06:34:04.216Z,70.67
2023-07-09T06:39:06.657Z,70.32
2023-07-09T06:44:09.376Z,70.93
2023-07-09T06:49:10.864Z,71.23
2023-07-09T06:54:13.989Z,70.57
2023-07-09T06:59:15.536Z,68.97
2023-07-09T07:04:16.946Z,66.58
2023-07-09T07:09:18.422Z,67.16
2023-07-09T07:14:19.902Z,66.25
2023-07-09T07:19:21.336Z,65.24
2023-07-09T07:24:22.775Z,65.18
2023-07-09T07:29:24.261Z,63.86
2023-07-09T07:34:25.837Z,63.10
2023-07-09T07:39:27.372Z,64.08
2023-07-09T07:44:28.878Z,65.56
2023-07-09T07:49:30.275Z,64.91
2023-07-09T07:54:35.210Z,65.44
2023-07-09T07:59:37.991Z,64.40
2023-07-09T08:04:41.220Z,64.02
2023-07-09T08:09:42.692Z,64.08
2023-07-09T08:14:47.188Z,63.69
2023-07-09T08:19:51.549Z,63.71
2023-07-09T08:24:53.075Z,62.33
2023-07-09T08:29:54.820Z,61.59
2023-07-09T08:40:16.555Z,59.87
2023-07-09T08:45:26.960Z,59.67
2023-07-09T08:50:42.774Z,60.89
2023-07-09T08:55:44.449Z,60.51
2023-07-09T09:01:03.072Z,60.59
2023-07-09T09:06:12.298Z,57.41
2023-07-09T09:11:22.741Z,55.39
2023-07-09T09:16:41.038Z,53.28
2023-07-09T09:21:43.610Z,54.06
2023-07-09T09:26:45.779Z,56.41
2023-07-09T09:31:52.312Z,56.13
2023-07-09T09:36:54.340Z,56.27
2023-07-09T09:41:58.837Z,57.90
2023-07-09T09:47:01.103Z,54.07
2023-07-09T09:52:03.529Z,53.81
2023-07-09T09:57:05.653Z,52.22
2023-07-09T10:02:21.443Z,50.72
2023-07-09T10:07:30.068Z,52.57
2023-07-09T10:12:50.807Z,50.85
2023-07-09T10:18:00.158Z,50.48
2023-07-09T10:23:26.593Z,50.52
2023-07-09T10:28:53.589Z,51.11
2023-07-09T10:34:16.356Z,52.89
2023-07-09T10:39:25.307Z,51.08
2023-07-09T10:44:36.325Z,51.90
2023-07-09T10:49:42.765Z,52.71
2023-07-09T10:55:18.277Z,52.48
2023-07-09T11:00:22.998Z,50.49
2023-07-09T11:05:24.991Z,52.42
2023-07-09T11:10:32.082Z,51.12
2023-07-09T11:15:40.333Z,53.68
2023-07-09T11:20:46.151Z,55.25
2023-07-09T11:26:01.265Z,55.81
2023-07-09T11:31:21.258Z,55.77
2023-07-09T11:36:31.974Z,55.16
2023-07-09T11:41:44.308Z,54.39
2023-07-09T11:47:01.025Z,52.59
2023-07-09T11:52:05.447Z,54.05
2023-07-09T11:57:13.550Z,53.37
2023-07-09T12:02:19.219Z,55.39
2023-07-09T12:07:25.410Z,56.78
2023-07-09T12:12:28.936Z,57.17
2023-07-09T12:17:31.663Z,55.27
2023-07-09T12:22:33.753Z,56.02
2023-07-09T12:27:38.524Z,55.11
2023-07-09T12:32:48.381Z,55.18
2023-07-09T12:37:53.793Z,52.59
2023-07-09T12:42:58.396Z,54.80
2023-07-09T12:48:00.229Z,52.95
2023-07-09T12:53:13.929Z,55.80
2023-07-09T12:58:24.071Z,55.33
2023-07-09T13:03:31.180Z,54.52
2023-07-09T13:08:42.133Z,55.45
2023-07-09T13:13:55.781Z,57.22
2023-07-09T13:18:57.434Z,58.71
2023-07-09T13:23:59.067Z,55.79
2023-07-09T13:29:00.525Z,56.40
2023-07-09T13:34:03.168Z,55.97
2023-07-09T13:39:06.698Z,56.49
2023-07-09T13:44:18.119Z,57.07
2023-07-09T13:49:21.062Z,57.70
2023-07-09T13:54:38.823Z,59.15
2023-07-09T13:59:40.889Z,61.64
2023-07-09T14:04:42.378Z,60.38
2023-07-09T14:09:43.820Z,61.16
2023-07-09T14:14:46.224Z,61.66
2023-07-09T14:19:48.163Z,62.66
2023-07-09T14:24:49.658Z,62.76
2023-07-09T14:29:51.142Z,63.76
2023-07-09T14:34:52.556Z,62.51
2023-07-09T14:39:54.079Z,62.83
2023-07-09T14:44:55.648Z,63.09
2023-07-09T14:49:57.082Z,63.51
2023-07-09T14:54:58.536Z,63.63
2023-07-09T14:59:59.987Z,64.14
2023-07-09T15:05:08.129Z,63.91
2023-07-09T15:10:14.750Z,64.24
2023-07-09T15:15:21.832Z,63.51
2023-07-09T15:20:27.058Z,64.88
2023-07-09T15:25:31.617Z,65.69
2023-07-09T15:30:33.144Z,68.56
2023-07-09T15:35:37.127Z,72.66
2023-07-09T15:40:38.610Z,75.85
2023-07-09T15:45:44.668Z,76.25
2023-07-09T15:50:46.085Z,76.41
2023-07-09T15:55:47.670Z,77.50
2023-07-09T16:00:50.525Z,77.62
2023-07-09T16:05:52.093Z,77.14
2023-07-09T16:10:53.843Z,77.82
2023-07-09T16:15:55.341Z,77.62
2023-07-09T16:20:57.418Z,77.49
2023-07-09T16:25:58.806Z,77.26
2023-07-09T16:31:00.240Z,77.46
2023-07-09T16:36:05.412Z,79.46
2023-07-09T16:41:07.438Z,79.15
2023-07-09T16:46:24.778Z,79.19
2023-07-09T16:51:27.049Z,78.93
2023-07-09T16:56:28.533Z,79.07
2023-07-09T17:01:30.007Z,79.49
2023-07-09T17:06:31.556Z,79.00
2023-07-09T17:11:33.040Z,79.24
2023-07-09T17:16:35.873Z,79.75
2023-07-09T17:21:37.401Z,80.63
2023-07-09T17:26:38.849Z,81.08
2023-07-09T17:31:40.244Z,81.25
2023-07-09T17:36:43.003Z,81.55
2023-07-09T17:41:44.891Z,81.38
2023-07-09T17:46:47.781Z,80.65
2023-07-09T17:51:49.337Z,80.11
2023-07-09T17:56:53.732Z,79.89
2023-07-09T18:02:02.178Z,80.17
2023-07-09T18:07:21.386Z,80.09
2023-07-09T18:12:26.978Z,80.10
2023-07-09T18:17:35.487Z,80.13
2023-07-09T18:22:36.971Z,79.80
2023-07-09T18:27:42.930Z,80.11
2023-07-09T18:32:46.287Z,79.36
2023-07-09T18:37:54.215Z,79.97
2023-07-09T18:42:56.541Z,79.78
2023-07-09T18:47:58.494Z,79.94
2023-07-09T18:53:00.340Z,79.49
2023-07-09T18:58:02.291Z,80.13
2023-07-09T19:03:04.127Z,80.60
2023-07-09T19:08:26.276Z,80.02
2023-07-09T19:13:27.876Z,79.78
2023-07-09T19:18:34.539Z,79.34
2023-07-09T19:23:36.449Z,79.60
2023-07-09T19:28:38.039Z,79.53
2023-07-09T19:33:41.393Z,79.95
2023-07-09T19:38:42.926Z,80.21
2023-07-09T19:43:44.311Z,79.74
2023-07-09T19:48:45.902Z,79.93
2023-07-09T19:53:47.619Z,79.79
2023-07-09T19:58:50.529Z,79.84
2023-07-09T20:03:53.605Z,80.55
2023-07-09T20:08:56.017Z,81.14
2023-07-09T20:13:57.497Z,80.54
2023-07-09T20:18:59.755Z,80.95
2023-07-09T20:24:01.750Z,81.56
2023-07-09T20:29:04.474Z,81.53
2023-07-09T20:34:24.484Z,81.36
2023-07-09T20:39:26.065Z,81.20
2023-07-09T20:44:32.286Z,81.72
2023-07-09T20:49:37.230Z,81.73
2023-07-09T20:54:39.532Z,82.13
2023-07-09T20:59:41.024Z,82.37
2023-07-09T21:04:42.529Z,82.63
2023-07-09T21:09:44.094Z,82.25
2023-07-09T21:14:46.285Z,82.17
2023-07-09T21:19:47.793Z,81.73
2023-07-09T21:24:51.130Z,80.94
2023-07-09T21:29:52.604Z,81.11
2023-07-09T21:34:57.319Z,81.60
2023-07-09T21:39:58.937Z,82.10
2023-07-09T21:45:00.415Z,81.97
2023-07-09T21:50:02.451Z,82.15
2023-07-09T21:55:12.164Z,82.73
2023-07-09T22:05:30.156Z,82.18
2023-07-09T22:10:31.700Z,82.29
2023-07-09T22:15:43.782Z,82.52
2023-07-09T22:20:45.983Z,82.64
2023-07-09T22:25:49.009Z,82.51
2023-07-09T22:30:51.382Z,82.78
2023-07-09T22:35:53.774Z,82.75
2023-07-09T22:40:55.203Z,83.04
2023-07-09T22:45:59.091Z,82.72
2023-07-09T22:51:00.660Z,80.93
2023-07-09T22:56:03.614Z,80.61
2023-07-09T23:01:21.364Z,81.74
2023-07-09T23:06:27.566Z,80.97
2023-07-09T23:11:32.349Z,78.83
2023-07-09T23:16:33.822Z,77.83
2023-07-09T23:21:37.940Z,77.71
2023-07-09T23:26:46.843Z,77.57
2023-07-09T23:31:50.295Z,76.80
2023-07-09T23:36:52.726Z,77.16
2023-07-09T23:41:56.906Z,76.89
2023-07-09T23:46:59.185Z,77.40
2023-07-09T23:52:00.832Z,76.93
2023-07-09T23:57:02.473Z,78.50
